Weather at Miangas Airport

Public forecast

Using degrees Celsius for public forecast. Weather courtesy of forecast.io.

Closest aviation weather report (METAR) to Miangas Airport

Closest report is General Santos International Airport, 93.5 nm (173.2 km) WNW.

2024/05/21 07:00 (retrieved 1 hour ago)

RPMR 210700Z VRB04KT 9999 FEW018 34/22 Q1006 RMK A2971

Closest aviation forecast (TAF) to Miangas Airport

Closest forecast is General Santos International Airport, 93.5 nm (173.2 km) WNW.

2024/05/21 06:00 (retrieved 2 hours ago)

TAF RPMR 210500Z 2106/2206 15004KT 9999 FEW018 SCT080 TEMPO 2106/2110 -SHRA SCT018CB TEMPO 2112/2118 34003KT -SHRA SCT018CB BKN080